首页
METAR-TAF:

METAR-TAF

机场 :

日利納, 斯洛伐克

纬度: 49-14N, 经度: 018-36-49E, 海拔: 312米

当前天气观测

该预报发布于24分钟前的05:00 UTC
风速3节,风向西北,在西北转西北之间变化
温度 0°C
湿度 93%
气压 1017 hPa
能見度: 5000
阴天层高于600英尺
轻雾

METAR: LZZI 080500Z 31003KT 270V340 5000 BR OVC006 M00/M01 Q1017

时间: 06:24 (05:24 UTC)

预报

该预报发布于3小时和24分钟前的02:00 UTC
预报有效从08日的 03点(UTC)到 08日的 12点(UTC)
风速3节,风向西
能見度: 6000
多云层高于700英尺
阴天层高于1200英尺
轻雾
短暂存在
从 08日的 03点(UTC)到 08日的 09点(UTC)
能見度: 3000
阴天层高于400英尺
轻雾
几率 30% :
短暂存在
从 08日的 03点(UTC)到 08日的 07点(UTC)
能見度: 1000
阴天层高于200英尺
轻雾

TAF: LZZI 080200Z 0803/0812 26003KT 6000 BR BKN007 OVC012 TEMPO 0803/0809 3000 BR OVC004 PROB30 TEMPO 0803/0807 1000 BR OVC002

超过4000个机场的气象观测和天气预报(METAR&TAF报告)。

可查询的气象台以黄色和红色小点在地图上表示。

将鼠标移到小点上方,可查看气象台名称。

然后点击查看天气观测和预报。

如需切换地图:点击带黑十字的绿色按钮放大地图;点击带横线的绿色按钮缩小地图;或者点击绿色箭头查看邻近地区的地图。


METAR-TAF: